createdAt,value
2023-04-11T00:02:22.055Z,78.27
2023-04-11T00:04:49.370Z,78.16
2023-04-11T00:07:17.510Z,78.44
2023-04-11T00:09:44.756Z,78.39
2023-04-11T00:12:11.764Z,78.66
2023-04-11T00:14:38.610Z,78.42
2023-04-11T00:17:06.265Z,78.90
2023-04-11T00:19:34.504Z,78.52
2023-04-11T00:22:01.980Z,78.87
2023-04-11T00:24:29.012Z,79.05
2023-04-11T00:26:57.032Z,79.24
2023-04-11T00:29:25.662Z,78.95
2023-04-11T00:31:55.600Z,79.18
2023-04-11T00:34:22.537Z,79.03
2023-04-11T00:36:49.555Z,79.30
2023-04-11T00:39:20.014Z,79.28
2023-04-11T00:41:47.266Z,79.34
2023-04-11T00:44:14.499Z,79.59
2023-04-11T00:46:46.248Z,79.52
2023-04-11T00:49:13.751Z,79.90
2023-04-11T00:51:40.869Z,79.65
2023-04-11T00:54:10.535Z,79.55
2023-04-11T00:56:37.808Z,79.48
2023-04-11T00:59:07.680Z,79.89
2023-04-11T01:01:36.617Z,79.97
2023-04-11T01:04:04.203Z,80.00
2023-04-11T01:06:33.868Z,80.16
2023-04-11T01:09:00.926Z,80.01
2023-04-11T01:11:27.904Z,80.14
2023-04-11T01:13:56.009Z,79.98
2023-04-11T01:16:22.888Z,80.12
2023-04-11T01:18:50.146Z,80.26
2023-04-11T01:21:19.848Z,80.25
2023-04-11T01:23:49.115Z,79.94
2023-04-11T01:26:16.509Z,80.03
2023-04-11T01:28:43.512Z,80.03
2023-04-11T01:31:10.369Z,80.31
2023-04-11T01:33:37.423Z,80.38
2023-04-11T01:36:04.735Z,80.53
2023-04-11T01:38:31.577Z,80.25
2023-04-11T01:41:00.288Z,80.55
2023-04-11T01:43:29.638Z,80.50
2023-04-11T01:45:57.872Z,80.44
2023-04-11T01:48:25.023Z,80.70
2023-04-11T01:50:53.287Z,80.35
2023-04-11T01:53:20.769Z,80.39
2023-04-11T01:55:48.393Z,80.44
2023-04-11T01:58:15.462Z,80.40
2023-04-11T02:00:44.004Z,80.64
2023-04-11T02:03:11.559Z,80.25
2023-04-11T02:05:39.772Z,80.58
2023-04-11T02:08:06.696Z,80.62
2023-04-11T02:10:33.592Z,80.45
2023-04-11T02:13:00.439Z,80.57
2023-04-11T02:15:28.007Z,80.67
2023-04-11T02:17:56.033Z,80.31
2023-04-11T02:20:23.508Z,80.55
2023-04-11T02:22:51.666Z,80.61
2023-04-11T02:25:18.612Z,80.58
2023-04-11T02:27:45.542Z,80.75
2023-04-11T02:30:12.575Z,81.09
2023-04-11T02:32:39.869Z,80.84
2023-04-11T02:35:10.094Z,81.05
2023-04-11T02:37:37.653Z,80.92
2023-04-11T02:40:05.198Z,80.96
2023-04-11T02:42:32.057Z,81.20
2023-04-11T02:44:59.044Z,81.15
2023-04-11T02:47:26.493Z,81.38
2023-04-11T02:49:54.511Z,81.04
2023-04-11T02:52:21.929Z,81.18
2023-04-11T02:54:48.809Z,81.31
2023-04-11T02:57:18.384Z,81.31
2023-04-11T02:59:45.738Z,81.24
2023-04-11T03:02:13.105Z,81.15
2023-04-11T03:04:44.000Z,81.10
2023-04-11T03:07:12.662Z,81.50
2023-04-11T03:09:39.549Z,81.18
2023-04-11T03:12:09.108Z,81.15
2023-04-11T03:14:38.805Z,81.48
2023-04-11T03:17:05.716Z,81.41
2023-04-11T03:19:32.664Z,81.47
2023-04-11T03:22:02.200Z,81.56
2023-04-11T03:24:30.694Z,81.37
2023-04-11T03:26:59.332Z,81.74
2023-04-11T03:29:26.183Z,81.76
2023-04-11T03:31:55.445Z,81.82
2023-04-11T03:34:23.595Z,81.62
2023-04-11T03:36:50.545Z,81.69
2023-04-11T03:39:22.519Z,81.55
2023-04-11T03:41:49.724Z,81.47
2023-04-11T03:44:16.920Z,81.61
2023-04-11T03:46:44.193Z,81.95
2023-04-11T03:49:11.100Z,81.87
2023-04-11T03:51:39.361Z,82.04
2023-04-11T03:54:07.813Z,81.72
2023-04-11T03:56:34.807Z,81.84
2023-04-11T03:59:02.033Z,81.85
2023-04-11T04:01:28.983Z,82.22
2023-04-11T04:03:56.434Z,82.17
2023-04-11T04:06:23.789Z,81.99
2023-04-11T04:08:50.747Z,81.89
2023-04-11T04:11:17.644Z,82.00
2023-04-11T04:13:44.614Z,81.95
2023-04-11T04:16:11.597Z,81.79
2023-04-11T04:18:38.469Z,82.12
2023-04-11T04:21:07.365Z,81.97
2023-04-11T04:23:36.853Z,82.03
2023-04-11T04:26:04.258Z,82.19
2023-04-11T04:28:31.329Z,81.96
2023-04-11T04:30:58.331Z,82.03
2023-04-11T04:33:27.452Z,81.83
2023-04-11T04:36:00.266Z,81.94
2023-04-11T04:38:29.106Z,81.62
2023-04-11T04:40:56.049Z,81.80
2023-04-11T04:43:24.513Z,81.73
2023-04-11T04:45:51.504Z,81.91
2023-04-11T04:48:20.156Z,81.88
2023-04-11T04:50:46.997Z,81.81
2023-04-11T04:53:15.002Z,81.95
2023-04-11T04:55:41.852Z,81.67
2023-04-11T04:58:09.292Z,81.96
2023-04-11T05:00:36.923Z,81.92
2023-04-11T05:03:06.019Z,81.96
2023-04-11T05:05:33.165Z,82.04
2023-04-11T05:08:02.251Z,81.83
2023-04-11T05:10:30.702Z,82.12
2023-04-11T05:12:57.671Z,81.97
2023-04-11T05:15:24.859Z,81.88
2023-04-11T05:17:51.862Z,81.79
2023-04-11T05:20:19.016Z,81.87
2023-04-11T05:22:47.597Z,81.80
2023-04-11T05:25:14.564Z,82.08
2023-04-11T05:27:42.809Z,81.94
2023-04-11T05:30:10.861Z,81.69
2023-04-11T05:32:38.397Z,81.71
2023-04-11T05:35:06.223Z,81.85
2023-04-11T05:37:33.193Z,81.93
2023-04-11T05:40:00.606Z,81.93
2023-04-11T05:42:27.419Z,81.69
2023-04-11T05:44:54.323Z,81.71
2023-04-11T05:47:21.374Z,82.04
2023-04-11T05:49:49.414Z,81.74
2023-04-11T05:52:16.832Z,82.04
2023-04-11T05:54:44.666Z,82.20
2023-04-11T05:57:12.633Z,82.05
2023-04-11T05:59:39.504Z,82.27
2023-04-11T06:02:06.862Z,82.05
2023-04-11T06:04:34.496Z,82.49
2023-04-11T06:07:03.963Z,82.19
2023-04-11T06:09:32.677Z,82.31
2023-04-11T06:12:02.984Z,82.46
2023-04-11T06:14:32.427Z,82.42
2023-04-11T06:17:00.050Z,82.48
2023-04-11T06:19:27.007Z,82.75
2023-04-11T06:21:53.920Z,82.55
2023-04-11T06:24:35.588Z,82.67
2023-04-11T06:29:31.465Z,82.67
2023-04-11T06:31:59.693Z,82.63
2023-04-11T06:34:28.992Z,82.87
2023-04-11T06:36:57.235Z,82.83
2023-04-11T06:39:24.364Z,82.81
2023-04-11T06:41:51.542Z,82.96
2023-04-11T06:44:21.518Z,82.77
2023-04-11T06:46:49.728Z,82.93
2023-04-11T06:49:19.197Z,82.91
2023-04-11T06:51:54.960Z,83.06
2023-04-11T06:54:23.733Z,83.11
2023-04-11T06:56:50.957Z,82.88
2023-04-11T06:59:21.118Z,82.96
2023-04-11T07:01:49.376Z,83.26
2023-04-11T07:04:16.943Z,82.96
2023-04-11T07:06:44.091Z,83.10
2023-04-11T07:09:13.315Z,82.80
2023-04-11T07:11:40.374Z,82.81
2023-04-11T07:14:07.693Z,82.67
2023-04-11T07:16:35.001Z,82.54
2023-04-11T07:19:03.342Z,82.61
2023-04-11T07:21:33.650Z,82.68
2023-04-11T07:24:04.135Z,82.51
2023-04-11T07:26:32.818Z,82.63
2023-04-11T07:29:00.156Z,82.69
2023-04-11T07:31:28.602Z,82.75
2023-04-11T07:33:56.180Z,82.64
2023-04-11T07:36:23.382Z,82.42
2023-04-11T07:38:52.472Z,82.53
2023-04-11T07:41:19.363Z,82.32
2023-04-11T07:43:51.787Z,82.30
2023-04-11T07:46:21.706Z,82.01
2023-04-11T07:48:51.049Z,82.10
2023-04-11T07:51:18.031Z,82.01
2023-04-11T07:53:49.692Z,81.77
2023-04-11T07:56:19.582Z,81.66
2023-04-11T07:58:49.584Z,81.59
2023-04-11T08:01:24.106Z,81.48
2023-04-11T08:03:54.144Z,81.50
2023-04-11T08:06:21.406Z,81.34
2023-04-11T08:08:50.709Z,81.30
2023-04-11T08:11:17.547Z,81.27
2023-04-11T08:13:48.209Z,81.08
2023-04-11T08:16:15.623Z,80.90
2023-04-11T08:18:43.208Z,80.76
2023-04-11T08:21:11.949Z,80.79
2023-04-11T08:23:41.096Z,80.40
2023-04-11T08:26:09.348Z,80.28
2023-04-11T08:28:36.415Z,80.31
2023-04-11T08:31:05.250Z,80.14
2023-04-11T08:33:33.219Z,80.22
2023-04-11T08:36:02.992Z,80.59
2023-04-11T08:38:29.939Z,81.22
2023-04-11T08:40:57.954Z,82.33
2023-04-11T08:43:24.882Z,83.80
2023-04-11T08:45:55.522Z,84.80
2023-04-11T08:48:25.502Z,83.79
2023-04-11T08:50:53.857Z,82.07
2023-04-11T08:53:25.355Z,79.99
2023-04-11T08:55:52.726Z,78.80
2023-04-11T08:58:20.187Z,77.58
2023-04-11T09:00:47.266Z,76.99
2023-04-11T09:03:17.433Z,76.95
2023-04-11T09:05:46.604Z,76.45
2023-04-11T09:08:17.408Z,76.36
2023-04-11T09:10:48.307Z,75.89
2023-04-11T09:13:24.381Z,75.41
2023-04-11T09:16:12.303Z,75.64
2023-04-11T09:18:40.318Z,75.14
2023-04-11T09:21:12.666Z,74.96
2023-04-11T09:23:40.385Z,75.20
2023-04-11T09:26:12.835Z,74.67
2023-04-11T09:28:45.446Z,74.55
2023-04-11T09:31:13.573Z,74.66
2023-04-11T09:33:53.903Z,74.69
2023-04-11T09:36:24.356Z,74.48
2023-04-11T09:38:54.519Z,74.59
2023-04-11T09:41:39.403Z,74.44
2023-04-11T09:44:06.998Z,74.40
2023-04-11T09:46:34.056Z,74.43
2023-04-11T09:49:02.161Z,74.52
2023-04-11T09:51:36.538Z,74.72
2023-04-11T09:54:05.685Z,75.21
2023-04-11T09:56:36.625Z,75.51
2023-04-11T09:59:05.487Z,75.85
2023-04-11T10:01:33.455Z,75.87
2023-04-11T10:04:01.575Z,76.30
2023-04-11T10:06:39.778Z,76.21
2023-04-11T10:09:11.851Z,76.44
2023-04-11T10:11:43.517Z,76.58
2023-04-11T10:14:39.860Z,76.45
2023-04-11T10:17:23.984Z,76.58
2023-04-11T10:19:56.686Z,76.59
2023-04-11T10:22:46.239Z,76.82
2023-04-11T10:25:25.271Z,76.80
2023-04-11T10:27:54.713Z,76.56
2023-04-11T10:30:39.823Z,76.63
2023-04-11T10:33:17.877Z,76.62
2023-04-11T10:35:58.378Z,76.87
2023-04-11T10:38:37.875Z,77.06
2023-04-11T10:41:23.056Z,77.38
2023-04-11T10:43:50.418Z,77.77
2023-04-11T10:46:25.270Z,77.75
2023-04-11T10:49:02.388Z,78.11
2023-04-11T10:51:32.864Z,78.17
2023-04-11T10:54:00.778Z,78.33
2023-04-11T10:56:44.094Z,78.69
2023-04-11T10:59:32.512Z,78.87
2023-04-11T11:02:03.226Z,79.20
2023-04-11T11:04:36.237Z,79.38
2023-04-11T11:07:14.639Z,79.27
2023-04-11T11:09:41.713Z,79.32
2023-04-11T11:12:17.443Z,79.49
2023-04-11T11:14:47.485Z,79.60
2023-04-11T11:17:16.549Z,79.63
2023-04-11T11:19:45.702Z,79.58
2023-04-11T11:22:26.591Z,79.67
2023-04-11T11:24:54.989Z,79.75
2023-04-11T11:27:23.762Z,80.00
2023-04-11T11:29:51.324Z,80.27
2023-04-11T11:32:25.437Z,80.72
2023-04-11T11:34:53.246Z,80.89
2023-04-11T11:37:22.470Z,81.03
2023-04-11T11:39:51.742Z,81.16
2023-04-11T11:42:19.140Z,81.63
2023-04-11T11:44:46.034Z,81.77
2023-04-11T11:47:17.158Z,82.17
2023-04-11T11:49:52.783Z,82.45
2023-04-11T11:52:37.043Z,82.62
2023-04-11T11:55:08.046Z,82.91
2023-04-11T11:57:37.878Z,83.19
2023-04-11T12:00:10.669Z,83.56
2023-04-11T12:02:39.294Z,83.60
2023-04-11T12:05:07.882Z,83.65
2023-04-11T12:07:38.135Z,83.74
2023-04-11T12:10:11.152Z,83.87
2023-04-11T12:12:40.271Z,83.87
2023-04-11T12:15:17.184Z,83.96
2023-04-11T12:17:48.546Z,83.97
2023-04-11T12:20:16.021Z,83.85
2023-04-11T12:22:43.045Z,83.77
2023-04-11T12:25:14.949Z,83.96
2023-04-11T12:27:43.679Z,84.10
2023-04-11T12:30:12.241Z,84.32
2023-04-11T12:32:39.289Z,84.50
2023-04-11T12:35:07.194Z,84.45
2023-04-11T12:37:35.187Z,84.60
2023-04-11T12:40:15.694Z,84.49
2023-04-11T12:42:56.433Z,84.66
2023-04-11T12:45:24.723Z,84.88
2023-04-11T12:47:51.965Z,84.87
2023-04-11T12:50:19.185Z,85.05
2023-04-11T12:52:46.088Z,85.29
2023-04-11T12:55:15.732Z,85.29
2023-04-11T12:57:43.960Z,85.43
2023-04-11T13:00:21.417Z,85.56
2023-04-11T13:02:49.106Z,85.72
2023-04-11T13:05:17.705Z,86.00
2023-04-11T13:07:45.801Z,85.91
2023-04-11T13:10:14.856Z,85.95
2023-04-11T13:12:48.618Z,86.27
2023-04-11T13:15:16.909Z,86.33
2023-04-11T13:17:44.321Z,86.36
2023-04-11T13:20:11.890Z,86.42
2023-04-11T13:22:43.141Z,86.48
2023-04-11T13:25:11.195Z,86.56
2023-04-11T13:27:39.873Z,86.74
2023-04-11T13:30:08.319Z,86.93
2023-04-11T13:32:35.627Z,86.98
2023-04-11T13:35:04.341Z,87.48
2023-04-11T13:37:31.906Z,87.50
2023-04-11T13:39:59.347Z,87.59
2023-04-11T13:42:26.269Z,87.64
2023-04-11T13:44:57.657Z,87.66
2023-04-11T13:47:24.570Z,87.69
2023-04-11T13:49:54.789Z,87.77
2023-04-11T13:52:25.035Z,87.78
2023-04-11T13:54:53.633Z,88.06
2023-04-11T13:57:21.946Z,87.84
2023-04-11T13:59:48.881Z,87.72
2023-04-11T14:02:16.358Z,87.74
2023-04-11T14:04:44.069Z,88.01
2023-04-11T14:07:11.060Z,88.17
2023-04-11T14:09:38.015Z,88.29
2023-04-11T14:12:04.947Z,88.12
2023-04-11T14:14:31.840Z,88.45
2023-04-11T14:16:58.813Z,88.48
2023-04-11T14:19:27.182Z,88.46
2023-04-11T14:21:54.193Z,88.61
2023-04-11T14:24:22.521Z,88.75
2023-04-11T14:26:50.351Z,89.09
2023-04-11T14:29:17.938Z,89.13
2023-04-11T14:31:45.866Z,89.36
2023-04-11T14:34:12.813Z,89.50
2023-04-11T14:36:40.476Z,89.63
2023-04-11T14:39:07.559Z,89.89
2023-04-11T14:41:36.741Z,89.93
2023-04-11T14:44:03.915Z,90.19
2023-04-11T14:46:32.213Z,90.30
2023-04-11T14:49:00.675Z,90.69
2023-04-11T14:51:29.224Z,90.96
2023-04-11T14:53:57.217Z,90.99
2023-04-11T14:56:25.124Z,90.94
2023-04-11T14:58:52.495Z,91.07
2023-04-11T15:01:22.179Z,90.97
2023-04-11T15:03:49.249Z,90.99
2023-04-11T15:06:16.443Z,91.03
2023-04-11T15:08:43.408Z,91.05
2023-04-11T15:11:13.161Z,90.96
2023-04-11T15:13:40.086Z,91.08
2023-04-11T15:16:08.459Z,90.94
2023-04-11T15:18:35.664Z,90.86
2023-04-11T15:21:03.562Z,90.66
2023-04-11T15:23:30.832Z,90.76
2023-04-11T15:26:02.894Z,90.55
2023-04-11T15:28:34.659Z,90.53
2023-04-11T15:31:02.796Z,90.28
2023-04-11T15:33:32.061Z,90.33
2023-04-11T15:36:00.799Z,90.49
2023-04-11T15:38:29.408Z,90.38
2023-04-11T15:41:00.080Z,90.26
2023-04-11T15:43:27.353Z,90.33
2023-04-11T15:45:54.938Z,90.32
2023-04-11T15:48:21.960Z,90.32
2023-04-11T15:50:49.172Z,90.23
2023-04-11T15:53:16.138Z,90.53
2023-04-11T15:55:43.984Z,90.41
2023-04-11T15:58:11.106Z,90.65
2023-04-11T16:00:42.845Z,90.56
2023-04-11T16:03:11.044Z,90.56
2023-04-11T16:05:40.979Z,90.52
2023-04-11T16:08:08.425Z,90.59
2023-04-11T16:10:36.539Z,90.65
2023-04-11T16:13:04.974Z,90.72
2023-04-11T16:15:32.523Z,90.85
2023-04-11T16:17:59.597Z,90.97
2023-04-11T16:20:26.499Z,91.02
2023-04-11T16:22:53.646Z,91.13
2023-04-11T16:25:21.683Z,91.33
2023-04-11T16:27:48.973Z,91.44
2023-04-11T16:30:17.168Z,91.44
2023-04-11T16:32:44.300Z,91.65
2023-04-11T16:35:11.425Z,91.72
2023-04-11T16:37:38.442Z,91.75
2023-04-11T16:40:16.265Z,92.04
2023-04-11T16:42:44.241Z,92.13
2023-04-11T16:45:12.425Z,92.35
2023-04-11T16:47:39.494Z,92.52
2023-04-11T16:50:07.629Z,92.81
2023-04-11T16:52:35.621Z,92.89
2023-04-11T16:55:04.663Z,93.04
2023-04-11T16:57:33.541Z,93.26
2023-04-11T17:00:05.599Z,93.36
2023-04-11T17:02:33.530Z,93.41
2023-04-11T17:05:03.262Z,93.49
2023-04-11T17:07:30.216Z,93.56
2023-04-11T17:09:58.750Z,93.59
2023-04-11T17:12:27.363Z,93.21
2023-04-11T17:14:57.265Z,93.21
2023-04-11T17:17:25.257Z,93.19
2023-04-11T17:19:52.755Z,93.20
2023-04-11T17:22:21.930Z,93.56
2023-04-11T17:24:48.789Z,93.27
2023-04-11T17:27:16.825Z,93.18
2023-04-11T17:29:43.908Z,93.47
2023-04-11T17:32:14.765Z,93.13
2023-04-11T17:34:42.357Z,93.04
2023-04-11T17:37:09.627Z,93.20
2023-04-11T17:39:36.815Z,93.34
2023-04-11T17:42:06.783Z,93.52
2023-04-11T17:44:34.321Z,93.60
2023-04-11T17:47:01.334Z,93.69
2023-04-11T17:49:28.417Z,93.41
2023-04-11T17:51:59.041Z,93.59
2023-04-11T17:54:27.053Z,93.70
2023-04-11T17:56:55.201Z,93.61
2023-04-11T17:59:25.607Z,93.67
2023-04-11T18:01:56.206Z,93.50
2023-04-11T18:04:23.981Z,93.41
2023-04-11T18:06:50.980Z,93.45
2023-04-11T18:09:18.258Z,93.60
2023-04-11T18:11:45.373Z,93.27
2023-04-11T18:14:12.313Z,93.37
2023-04-11T18:16:41.820Z,93.28
2023-04-11T18:19:09.752Z,93.33
2023-04-11T18:21:39.038Z,93.34
2023-04-11T18:24:06.590Z,93.51
2023-04-11T18:26:34.858Z,93.45
2023-04-11T18:29:06.767Z,93.74
2023-04-11T18:31:35.745Z,93.47
2023-04-11T18:34:06.741Z,93.73
2023-04-11T18:36:34.473Z,93.49
2023-04-11T18:39:01.525Z,93.59
2023-04-11T18:41:38.697Z,93.81
2023-04-11T18:44:06.426Z,93.53
2023-04-11T18:46:35.521Z,93.61
2023-04-11T18:49:05.514Z,93.64
2023-04-11T18:51:34.516Z,93.69
2023-04-11T18:54:01.475Z,93.50
2023-04-11T18:56:30.481Z,93.28
2023-04-11T18:59:04.668Z,93.30
2023-04-11T19:01:35.192Z,93.27
2023-04-11T19:04:05.189Z,93.46
2023-04-11T19:06:32.569Z,93.48
2023-04-11T19:08:59.620Z,92.95
2023-04-11T19:11:26.772Z,93.54
2023-04-11T19:13:54.740Z,93.46
2023-04-11T19:16:21.965Z,93.04
2023-04-11T19:18:49.162Z,93.25
2023-04-11T19:21:16.688Z,93.09
2023-04-11T19:23:43.683Z,93.07
2023-04-11T19:26:10.717Z,92.84
2023-04-11T19:28:38.917Z,92.99
2023-04-11T19:31:05.926Z,92.80
2023-04-11T19:33:36.523Z,92.56
2023-04-11T19:36:04.163Z,92.12
2023-04-11T19:38:31.944Z,91.94
2023-04-11T19:41:10.667Z,91.77
2023-04-11T19:43:37.560Z,91.72
2023-04-11T19:46:05.892Z,91.53
2023-04-11T19:48:34.600Z,90.98
2023-04-11T19:51:02.924Z,91.14
2023-04-11T19:53:35.783Z,91.05
2023-04-11T19:56:11.510Z,90.47
2023-04-11T19:58:38.434Z,90.37
2023-04-11T20:01:07.480Z,90.51
2023-04-11T20:03:34.800Z,90.32
2023-04-11T20:06:05.680Z,90.24
2023-04-11T20:08:32.850Z,89.92
2023-04-11T20:11:00.994Z,89.79
2023-04-11T20:13:28.302Z,89.72
2023-04-11T20:15:55.471Z,89.60
2023-04-11T20:18:24.181Z,89.52
2023-04-11T20:20:51.719Z,89.84
2023-04-11T20:23:18.828Z,89.73
2023-04-11T20:25:46.905Z,89.79
2023-04-11T20:28:13.762Z,89.93
2023-04-11T20:30:42.223Z,89.59
2023-04-11T20:33:09.176Z,89.63
2023-04-11T20:35:36.321Z,89.52
2023-04-11T20:38:03.820Z,89.33
2023-04-11T20:40:31.895Z,89.34
2023-04-11T20:43:02.193Z,89.54
2023-04-11T20:45:30.827Z,89.33
2023-04-11T20:48:01.932Z,89.50
2023-04-11T20:50:33.667Z,88.98
2023-04-11T20:53:04.176Z,89.06
2023-04-11T20:55:34.021Z,88.77
2023-04-11T20:58:01.413Z,88.63
2023-04-11T21:00:29.572Z,88.85
2023-04-11T21:02:57.146Z,88.54
2023-04-11T21:05:25.236Z,88.96
2023-04-11T21:07:55.594Z,88.78
2023-04-11T21:10:22.546Z,88.57
2023-04-11T21:12:51.869Z,88.37
2023-04-11T21:15:20.948Z,88.20
2023-04-11T21:17:48.424Z,88.58
2023-04-11T21:20:18.533Z,87.95
2023-04-11T21:22:47.115Z,87.92
2023-04-11T21:25:14.500Z,87.88
2023-04-11T21:27:41.602Z,87.58
2023-04-11T21:30:09.925Z,87.60
2023-04-11T21:32:36.866Z,87.26
2023-04-11T21:35:09.594Z,87.14
2023-04-11T21:37:41.074Z,86.67
2023-04-11T21:40:08.679Z,86.96
2023-04-11T21:42:36.190Z,86.77
2023-04-11T21:45:03.152Z,86.87
2023-04-11T21:47:30.055Z,87.04
2023-04-11T21:49:59.059Z,87.06
2023-04-11T21:52:26.153Z,87.26
2023-04-11T21:54:56.480Z,87.27
2023-04-11T21:57:24.394Z,87.00
2023-04-11T21:59:51.582Z,87.31
2023-04-11T22:02:19.451Z,87.28
2023-04-11T22:05:05.101Z,86.94
2023-04-11T22:07:55.413Z,86.96
2023-04-11T22:10:23.786Z,87.35
2023-04-11T22:12:54.169Z,87.03
2023-04-11T22:15:21.820Z,87.02
2023-04-11T22:17:51.280Z,87.17
2023-04-11T22:20:18.972Z,86.86
2023-04-11T22:22:46.179Z,86.85
2023-04-11T22:25:14.974Z,87.04
2023-04-11T22:27:41.860Z,86.83
2023-04-11T22:30:10.064Z,86.86
2023-04-11T22:32:38.797Z,86.72
2023-04-11T22:35:08.647Z,86.88
2023-04-11T22:37:36.982Z,86.85
2023-04-11T22:40:06.434Z,86.82
2023-04-11T22:42:33.522Z,87.21
2023-04-11T22:45:00.595Z,87.13
2023-04-11T22:47:29.106Z,87.11
2023-04-11T22:49:55.976Z,87.06
2023-04-11T22:52:26.403Z,87.13
2023-04-11T22:54:53.292Z,87.05
2023-04-11T22:57:20.171Z,86.92
2023-04-11T22:59:47.333Z,87.27
2023-04-11T23:02:14.264Z,87.08
2023-04-11T23:04:41.860Z,86.98
2023-04-11T23:07:08.816Z,86.98
2023-04-11T23:09:35.747Z,87.05
2023-04-11T23:12:03.634Z,87.02
2023-04-11T23:14:32.153Z,86.63
2023-04-11T23:17:00.384Z,86.79
2023-04-11T23:19:27.361Z,86.60
2023-04-11T23:21:54.243Z,86.76
2023-04-11T23:24:21.140Z,86.74
2023-04-11T23:26:50.159Z,86.55
2023-04-11T23:29:17.350Z,86.61
2023-04-11T23:31:44.504Z,86.33
2023-04-11T23:34:11.472Z,86.27
2023-04-11T23:36:39.420Z,86.14
2023-04-11T23:39:13.322Z,86.35
2023-04-11T23:41:40.565Z,86.26
2023-04-11T23:44:08.502Z,85.95
2023-04-11T23:46:35.534Z,86.36
2023-04-11T23:49:02.631Z,86.19
2023-04-11T23:51:29.602Z,86.27
2023-04-11T23:53:57.211Z,86.41
2023-04-11T23:56:24.376Z,86.41
2023-04-11T23:58:51.400Z,86.40
